Time;durP1;ratioP1;P1;durP2;ratioP2;P2;SDS_P1;SDS_P2;PMS_P1;PMS_P2;Temp;Humidity;BMP_temperature;BMP_pressure;BME280_temperature;BME280_humidity;BME280_pressure;Samples;Min_cycle;Max_cycle;Signal;HPM_P1;HPM_P2
2023/11/17 00:01:27;;;;;;;5.65;4.78;;;;;;;5.21;100.00;101650.16;4997458;28;20347;-87
2023/11/17 00:03:53;;;;;;;5.47;4.97;;;;;;;5.24;100.00;101651.88;5016654;28;20037;-87
2023/11/17 00:06:19;;;;;;;4.90;4.50;;;;;;;5.23;100.00;101652.75;4995912;28;20036;-87
2023/11/17 00:08:44;;;;;;;4.90;4.50;;;;;;;5.25;100.00;101653.59;4997324;28;20069;-87
2023/11/17 00:11:11;;;;;;;5.55;4.90;;;;;;;5.25;100.00;101656.19;4993039;28;20290;-87
2023/11/17 00:13:40;;;;;;;7.45;4.68;;;;;;;5.25;100.00;101658.81;4996040;28;20356;-87
2023/11/17 00:16:06;;;;;;;5.00;4.50;;;;;;;5.27;100.00;101652.72;5013384;28;20021;-87
2023/11/17 00:18:33;;;;;;;5.00;4.60;;;;;;;5.28;100.00;101659.66;4995553;28;20025;-87
2023/11/17 00:20:58;;;;;;;6.07;5.07;;;;;;;5.27;100.00;101670.91;4995154;28;20064;-87
2023/11/17 00:23:27;;;;;;;7.82;5.40;;;;;;;5.28;100.00;101666.59;5015211;28;20045;-87
2023/11/17 00:25:56;;;;;;;5.53;4.75;;;;;;;5.27;100.00;101664.84;4999051;28;20034;-87
2023/11/17 00:28:25;;;;;;;6.85;5.13;;;;;;;5.29;100.00;101666.53;4999723;28;20101;-87
2023/11/17 00:30:51;;;;;;;6.95;5.18;;;;;;;5.31;100.00;101677.81;5014409;28;20038;-86
2023/11/17 00:33:17;;;;;;;8.07;5.07;;;;;;;5.30;100.00;101672.63;4998542;28;20053;-87
2023/11/17 00:35:46;;;;;;;5.75;5.13;;;;;;;5.28;100.00;101680.44;4997327;28;20545;-87
2023/11/17 00:38:12;;;;;;;5.53;5.03;;;;;;;5.27;100.00;101683.03;4997370;28;20034;-87
2023/11/17 00:40:38;;;;;;;5.38;4.88;;;;;;;5.29;100.00;101689.06;4980928;28;20422;-87
2023/11/17 00:43:03;;;;;;;5.05;4.60;;;;;;;5.29;100.00;101686.47;4998259;28;20021;-87
2023/11/17 00:45:30;;;;;;;5.63;4.80;;;;;;;5.29;100.00;101689.06;4998138;28;20518;-86
2023/11/17 00:47:55;;;;;;;5.40;5.00;;;;;;;5.29;100.00;101691.66;4998761;28;20037;-86
2023/11/17 00:50:22;;;;;;;6.40;4.78;;;;;;;5.29;100.00;101692.53;4997571;28;20021;-86
2023/11/17 00:52:48;;;;;;;6.07;5.32;;;;;;;5.28;100.00;101688.22;4996480;28;20046;-86
2023/11/17 00:55:13;;;;;;;5.13;4.68;;;;;;;5.27;100.00;101693.41;4997557;28;20041;-86
2023/11/17 00:57:43;;;;;;;6.43;5.25;;;;;;;5.26;100.00;101696.91;4995820;28;20034;-86
2023/11/17 01:00:11;;;;;;;6.07;5.30;;;;;;;5.26;100.00;101699.50;5014123;28;20096;-87
2023/11/17 01:02:40;;;;;;;9.50;5.10;;;;;;;5.24;100.00;101696.03;5015125;28;20072;-87
2023/11/17 01:05:09;;;;;;;7.60;4.75;;;;;;;5.24;100.00;101696.03;5015890;28;20029;-86
2023/11/17 01:07:35;;;;;;;6.38;5.18;;;;;;;5.24;100.00;101693.41;5003197;28;20021;-86
2023/11/17 01:10:04;;;;;;;5.45;4.93;;;;;;;5.24;100.00;101704.69;5015284;28;20038;-86
2023/11/17 01:12:30;;;;;;;6.00;4.95;;;;;;;5.24;100.00;101703.81;5015074;28;20026;-86
2023/11/17 01:14:55;;;;;;;7.40;5.32;;;;;;;5.25;100.00;101721.13;5012941;28;20232;-86
2023/11/17 01:17:20;;;;;;;6.13;4.95;;;;;;;5.26;100.00;101710.75;4996078;28;20072;-86
2023/11/17 01:19:46;;;;;;;5.10;4.60;;;;;;;5.28;100.00;101708.13;4995304;28;20038;-86
2023/11/17 01:22:12;;;;;;;9.63;5.00;;;;;;;5.28;100.00;101719.38;4977828;28;20038;-86
2023/11/17 01:24:38;;;;;;;6.85;5.40;;;;;;;5.30;100.00;101724.56;4994906;28;20030;-86
2023/11/17 01:27:04;;;;;;;5.72;4.80;;;;;;;5.30;100.00;101728.03;4995144;28;20056;-87
2023/11/17 01:29:31;;;;;;;7.45;5.00;;;;;;;5.31;100.00;101727.16;4977464;28;20379;-86
2023/11/17 01:31:56;;;;;;;5.53;4.95;;;;;;;5.30;100.00;101728.03;4995930;28;20404;-86
2023/11/17 01:34:21;;;;;;;5.43;4.78;;;;;;;5.34;100.00;101728.88;4995793;28;20038;-87
2023/11/17 01:36:47;;;;;;;5.30;4.57;;;;;;;5.34;100.00;101734.06;4994867;28;20359;-87
2023/11/17 01:39:13;;;;;;;5.53;5.03;;;;;;;5.32;100.00;101731.47;4978359;28;20038;-87
2023/11/17 01:41:39;;;;;;;5.40;4.90;;;;;;;5.32;100.00;101728.03;4976920;28;20130;-86
2023/11/17 01:44:05;;;;;;;5.40;4.90;;;;;;;5.32;100.00;101734.06;4977494;28;20030;-87
2023/11/17 01:46:31;;;;;;;5.88;5.32;;;;;;;5.33;100.00;101742.72;4995012;28;20089;-86
2023/11/17 01:48:57;;;;;;;5.72;5.20;;;;;;;5.32;100.00;101741.88;4995353;28;20042;-87
2023/11/17 01:51:22;;;;;;;5.60;5.20;;;;;;;5.32;100.00;101741.00;4977930;28;20217;-86
2023/11/17 01:53:48;;;;;;;5.60;5.10;;;;;;;5.33;100.00;101738.41;4994182;28;20039;-86
2023/11/17 01:56:14;;;;;;;6.40;5.80;;;;;;;5.34;100.00;101740.13;4994940;28;20265;-86
2023/11/17 01:58:40;;;;;;;5.45;4.75;;;;;;;5.36;100.00;101746.16;4993527;28;20384;-87
2023/11/17 02:01:08;;;;;;;5.40;5.00;;;;;;;5.37;100.00;101737.53;4983786;28;20026;-86
2023/11/17 02:03:33;;;;;;;5.88;5.30;;;;;;;5.36;100.00;101735.78;4994760;28;20038;-86
2023/11/17 02:06:14;;;;;;;7.55;4.93;;;;;;;5.37;100.00;101740.13;4995524;28;20041;-87
2023/11/17 02:09:13;;;;;;;8.38;4.90;;;;;;;5.36;100.00;101740.97;4991987;28;20068;-86
2023/11/17 02:11:45;;;;;;;5.18;4.68;;;;;;;5.37;100.00;101739.25;5002750;28;20250;-87
2023/11/17 02:14:21;;;;;;;6.30;5.43;;;;;;;5.38;100.00;101735.78;5014360;28;20323;-86
2023/11/17 02:16:50;;;;;;;6.85;5.00;;;;;;;5.37;100.00;101741.88;5013852;28;20049;-86
2023/11/17 02:19:34;;;;;;;6.15;5.65;;;;;;;5.33;100.00;101734.94;5012464;28;20072;-87
2023/11/17 02:22:06;;;;;;;8.40;5.38;;;;;;;5.33;100.00;101746.22;5014602;28;20026;-86
2023/11/17 02:24:54;;;;;;;8.50;5.13;;;;;;;5.33;100.00;101735.81;5013553;28;20061;-86
2023/11/17 02:27:38;;;;;;;6.03;5.43;;;;;;;5.36;100.00;101737.53;5001271;28;20029;-86
2023/11/17 02:30:06;;;;;;;7.93;5.72;;;;;;;5.37;100.00;101734.06;5001158;28;20029;-86
2023/11/17 02:32:32;;;;;;;6.40;5.83;;;;;;;5.39;100.00;101740.13;5012518;28;20032;-86
2023/11/17 02:34:58;;;;;;;6.10;5.53;;;;;;;5.41;100.00;101735.78;5014196;28;20245;-87
2023/11/17 02:37:24;;;;;;;10.18;5.80;;;;;;;5.42;100.00;101737.50;5014410;28;20095;-86
2023/11/17 02:39:54;;;;;;;6.80;5.28;;;;;;;5.44;100.00;101735.78;5012319;28;20033;-86
2023/11/17 02:42:24;;;;;;;5.93;5.03;;;;;;;5.43;100.00;101733.16;5013995;28;20228;-86
2023/11/17 02:44:50;;;;;;;6.43;5.25;;;;;;;5.41;100.00;101727.97;5013734;28;20214;-86
2023/11/17 02:47:27;;;;;;;6.00;5.40;;;;;;;5.42;100.00;101727.13;5014182;28;20045;-86
2023/11/17 02:49:58;;;;;;;5.78;4.90;;;;;;;5.42;100.00;101729.72;5013793;28;20033;-87
2023/11/17 02:52:31;;;;;;;7.47;5.18;;;;;;;5.41;100.00;101724.53;5014117;28;20048;-86
2023/11/17 02:55:01;;;;;;;6.03;5.43;;;;;;;5.41;100.00;101715.00;5010381;28;20034;-87
2023/11/17 02:57:28;;;;;;;6.07;5.30;;;;;;;5.41;100.00;101721.94;5013757;28;20068;-86
2023/11/17 02:59:54;;;;;;;5.82;4.97;;;;;;;5.41;100.00;101714.13;5014705;28;20022;-86
2023/11/17 03:02:20;;;;;;;5.45;4.85;;;;;;;5.39;100.00;101711.53;5012985;28;20064;-86
2023/11/17 03:04:49;;;;;;;6.30;4.95;;;;;;;5.38;100.00;101715.00;5013808;28;20042;-86
2023/11/17 03:07:15;;;;;;;5.07;4.68;;;;;;;5.37;100.00;101721.09;5014559;28;20048;-86
2023/11/17 03:09:40;;;;;;;4.90;4.47;;;;;;;5.39;100.00;101721.94;5012095;28;20053;-86
2023/11/17 03:12:06;;;;;;;5.25;4.57;;;;;;;5.39;100.00;101720.19;5013936;28;20101;-86
2023/11/17 03:14:32;;;;;;;6.05;4.80;;;;;;;5.39;100.00;101709.78;5012560;28;20034;-86
2023/11/17 03:16:59;;;;;;;7.18;4.88;;;;;;;5.41;100.00;101716.72;5012832;28;20337;-87
2023/11/17 03:19:26;;;;;;;5.78;4.70;;;;;;;5.41;100.00;101711.53;5014473;28;20046;-86
2023/11/17 03:21:54;;;;;;;4.60;4.20;;;;;;;5.43;100.00;101717.59;5012183;28;20025;-86
2023/11/17 03:24:23;;;;;;;6.00;4.80;;;;;;;5.45;100.00;101715.84;5012668;28;20063;-86
2023/11/17 03:26:50;;;;;;;;;;;;;;;5.45;100.00;101706.31;5013614;28;20046;-86
2023/11/17 03:29:15;;;;;;;5.07;4.57;;;;;;;5.49;100.00;101713.19;5012602;28;20234;-86
2023/11/17 03:31:52;;;;;;;7.75;4.85;;;;;;;5.49;100.00;101717.53;5015680;28;20061;-86
2023/11/17 03:34:30;;;;;;;6.60;4.85;;;;;;;5.46;100.00;101718.44;5017304;28;20419;-86
2023/11/17 03:36:57;;;;;;;5.10;4.53;;;;;;;5.47;100.00;101719.28;5016839;28;20356;-86
2023/11/17 03:39:24;;;;;;;5.85;4.55;;;;;;;5.46;100.00;101723.63;5016368;28;20034;-87
2023/11/17 03:41:49;;;;;;;5.53;5.03;;;;;;;5.46;100.00;101714.97;5016655;28;20076;-86
2023/11/17 03:44:15;;;;;;;6.60;4.50;;;;;;;5.43;100.00;101713.25;5017441;28;20289;-87
2023/11/17 03:46:48;;;;;;;4.30;4.00;;;;;;;5.45;100.00;101711.50;5016074;28;20061;-86
2023/11/17 03:49:14;;;;;;;5.07;4.32;;;;;;;5.45;100.00;101716.69;5017487;28;20063;-87
2023/11/17 03:51:39;;;;;;;5.10;4.68;;;;;;;5.45;100.00;101708.91;5016536;28;20109;-86
2023/11/17 03:54:05;;;;;;;5.90;4.60;;;;;;;5.46;100.00;101714.97;5015121;28;20611;-86
2023/11/17 03:56:31;;;;;;;7.03;4.90;;;;;;;5.47;100.00;101712.34;5016381;28;20244;-86
2023/11/17 03:58:57;;;;;;;6.47;4.57;;;;;;;5.48;100.00;101708.88;5015834;28;20427;-86
2023/11/17 04:01:22;;;;;;;6.40;5.20;;;;;;;5.49;100.00;101705.41;5015857;28;20104;-86
2023/11/17 04:03:48;;;;;;;6.18;5.57;;;;;;;5.50;100.00;101708.88;5014769;28;20353;-87
2023/11/17 04:06:14;;;;;;;5.53;5.03;;;;;;;5.51;100.00;101708.00;5015841;28;20382;-86
2023/11/17 04:08:39;;;;;;;6.18;5.57;;;;;;;5.52;100.00;101720.97;5023356;28;20113;-86
2023/11/17 04:11:05;;;;;;;6.07;5.35;;;;;;;5.52;100.00;101713.19;5018323;28;20269;-86
2023/11/17 04:13:35;;;;;;;6.53;5.72;;;;;;;5.53;100.00;101712.34;5033716;28;20057;-86
2023/11/17 04:16:01;;;;;;;11.35;6.60;;;;;;;5.53;100.00;101714.94;5018894;28;20232;-86
2023/11/17 04:18:27;;;;;;;6.55;5.82;;;;;;;5.54;100.00;101715.78;5030920;28;20037;-86
2023/11/17 04:20:53;;;;;;;8.93;5.65;;;;;;;5.56;100.00;101719.22;5018637;28;20372;-86
2023/11/17 04:23:18;;;;;;;7.93;5.82;;;;;;;5.55;100.00;101723.56;5020670;28;20244;-86
2023/11/17 04:25:44;;;;;;;7.10;5.97;;;;;;;5.57;100.00;101721.81;5014563;28;20036;-86
2023/11/17 04:28:09;;;;;;;7.88;6.07;;;;;;;5.57;100.00;101719.22;5016837;28;20053;-86
2023/11/17 04:30:34;;;;;;;7.15;5.78;;;;;;;5.58;100.00;101718.38;5016529;28;20057;-86
2023/11/17 04:33:00;;;;;;;6.43;5.80;;;;;;;5.58;100.00;101728.75;5018040;28;20033;-86
2023/11/17 04:35:25;;;;;;;7.28;6.57;;;;;;;5.61;100.00;101732.22;5014753;28;20028;-86
2023/11/17 04:37:51;;;;;;;9.20;6.60;;;;;;;5.58;100.00;101726.16;5019335;28;20037;-87
2023/11/17 04:40:16;;;;;;;7.18;6.30;;;;;;;5.62;100.00;101732.22;5034893;28;20041;-87
2023/11/17 04:42:42;;;;;;;8.20;6.70;;;;;;;5.62;100.00;101732.22;5019301;28;20029;-86
2023/11/17 04:45:09;;;;;;;8.73;6.88;;;;;;;5.64;100.00;101740.84;5029889;28;20045;-86
2023/11/17 04:47:34;;;;;;;9.48;6.72;;;;;;;5.63;100.00;101735.66;5017324;28;20041;-86
2023/11/17 04:49:59;;;;;;;9.00;7.10;;;;;;;5.64;100.00;101737.38;5023031;28;20044;-86
2023/11/17 04:52:25;;;;;;;11.65;8.20;;;;;;;5.63;100.00;101727.88;5035859;28;20192;-86
2023/11/17 04:54:51;;;;;;;10.43;8.30;;;;;;;5.63;100.00;101733.91;5014314;28;20045;-86
2023/11/17 04:57:17;;;;;;;12.15;8.10;;;;;;;5.62;100.00;101740.00;5015827;28;20104;-86
2023/11/17 04:59:44;;;;;;;13.20;8.50;;;;;;;5.61;100.00;101732.22;5015592;28;20042;-86
2023/11/17 05:02:09;;;;;;;12.77;7.78;;;;;;;5.62;100.00;101737.41;5030897;28;20029;-87
2023/11/17 05:04:35;;;;;;;11.55;8.52;;;;;;;5.63;100.00;101743.47;5035780;28;20037;-86
2023/11/17 05:07:00;;;;;;;9.80;8.18;;;;;;;5.63;100.00;101738.25;5030861;28;20079;-86
2023/11/17 05:09:26;;;;;;;13.02;8.70;;;;;;;5.61;100.00;101746.06;5017853;28;20057;-86
2023/11/17 05:11:52;;;;;;;11.05;7.57;;;;;;;5.62;100.00;101747.81;5034958;28;20037;-86
2023/11/17 05:14:17;;;;;;;11.68;8.00;;;;;;;5.61;100.00;101750.41;5035599;28;20353;-86
2023/11/17 05:16:45;;;;;;;9.00;7.75;;;;;;;5.62;100.00;101752.13;5017065;28;20037;-86
2023/11/17 05:19:10;;;;;;;9.00;8.07;;;;;;;5.62;100.00;101758.19;5035323;28;20033;-86
2023/11/17 05:21:37;;;;;;;10.95;7.68;;;;;;;5.61;100.00;101753.84;5024561;28;20040;-86
2023/11/17 05:24:03;;;;;;;11.68;7.90;;;;;;;5.60;100.00;101751.25;5014132;28;20131;-86
2023/11/17 05:26:28;;;;;;;11.23;8.13;;;;;;;5.58;100.00;101752.16;5014892;28;20323;-86
2023/11/17 05:28:54;;;;;;;12.25;8.68;;;;;;;5.57;100.00;101758.22;5015509;28;20041;-86
2023/11/17 05:31:20;;;;;;;11.77;8.23;;;;;;;5.58;100.00;101764.25;5016743;28;20060;-86
2023/11/17 05:33:46;;;;;;;11.27;8.35;;;;;;;5.58;100.00;101762.56;5015335;28;20038;-86
2023/11/17 05:36:12;;;;;;;10.80;8.57;;;;;;;5.61;100.00;101776.41;5016061;28;20272;-86
2023/11/17 05:38:38;;;;;;;8.73;7.72;;;;;;;5.60;100.00;101772.06;5013846;28;20056;-87
2023/11/17 05:41:05;;;;;;;9.80;7.95;;;;;;;5.62;100.00;101762.50;5018887;28;20356;-86
2023/11/17 05:43:30;;;;;;;9.60;8.20;;;;;;;5.60;100.00;101774.66;5029078;28;20056;-86
2023/11/17 05:45:59;;;;;;;13.02;8.13;;;;;;;5.57;100.00;101771.19;5013753;28;20064;-86
2023/11/17 05:48:25;;;;;;;14.40;8.13;;;;;;;5.56;100.00;101774.66;5013699;28;20030;-87
2023/11/17 05:50:50;;;;;;;10.55;7.82;;;;;;;5.53;100.00;101771.22;5027596;28;20033;-86
2023/11/17 05:53:15;;;;;;;9.60;7.97;;;;;;;5.54;100.00;101772.94;5015150;28;20069;-86
2023/11/17 05:55:41;;;;;;;10.25;8.18;;;;;;;5.51;100.00;101771.25;5015235;28;20038;-86
2023/11/17 05:58:07;;;;;;;12.30;8.20;;;;;;;5.50;100.00;101769.50;5015761;28;20097;-86
2023/11/17 06:00:33;;;;;;;8.73;7.45;;;;;;;5.50;100.00;101786.84;5025694;28;20554;-86
2023/11/17 06:02:58;;;;;;;11.20;8.35;;;;;;;5.46;100.00;101773.00;5016943;28;20497;-86
2023/11/17 06:05:24;;;;;;;10.90;7.85;;;;;;;5.45;100.00;101784.25;5014909;28;20046;-86
2023/11/17 06:07:49;;;;;;;13.07;8.65;;;;;;;5.44;100.00;101787.72;5027307;28;20041;-86
2023/11/17 06:10:14;;;;;;;12.25;8.60;;;;;;;5.44;100.00;101790.31;5010294;28;20033;-86
2023/11/17 06:12:41;;;;;;;13.35;9.13;;;;;;;5.43;100.00;101788.59;5004777;28;20034;-86
2023/11/17 06:15:07;;;;;;;10.50;8.40;;;;;;;5.44;100.00;101792.94;5000222;28;20215;-86
2023/11/17 06:17:33;;;;;;;11.15;8.45;;;;;;;5.44;100.00;101797.22;5022004;28;20043;-86
2023/11/17 06:20:00;;;;;;;13.10;8.52;;;;;;;5.43;100.00;101793.78;5022773;28;20044;-86
2023/11/17 06:22:27;;;;;;;16.10;9.40;;;;;;;5.44;100.00;101795.53;5014671;28;20331;-86
2023/11/17 06:24:53;;;;;;;13.60;8.77;;;;;;;5.45;100.00;101805.03;5008082;28;20043;-86
2023/11/17 06:27:19;;;;;;;11.50;9.13;;;;;;;5.45;100.00;101798.97;5029142;28;20057;-86
2023/11/17 06:29:45;;;;;;;13.55;8.77;;;;;;;5.46;100.00;101804.16;5014270;28;20061;-86
2023/11/17 06:32:11;;;;;;;9.27;7.95;;;;;;;5.46;100.00;101800.72;5015791;28;20456;-86
2023/11/17 06:34:36;;;;;;;13.00;8.80;;;;;;;5.45;100.00;101807.63;5010142;28;20026;-86
2023/11/17 06:37:02;;;;;;;10.88;8.65;;;;;;;5.46;100.00;101806.78;5018825;28;20037;-86
2023/11/17 06:39:29;;;;;;;14.30;9.75;;;;;;;5.45;100.00;101812.81;5024299;28;20033;-86
2023/11/17 06:41:54;;;;;;;13.18;8.05;;;;;;;5.45;100.00;101809.38;5005020;28;20053;-86
2023/11/17 06:44:22;;;;;;;9.43;8.07;;;;;;;5.44;100.00;101802.44;5014596;28;20105;-86
2023/11/17 06:46:48;;;;;;;10.82;8.77;;;;;;;5.45;100.00;101809.38;5011788;28;20044;-86
2023/11/17 06:49:16;;;;;;;11.57;8.38;;;;;;;5.43;100.00;101806.78;5033226;28;20069;-86
2023/11/17 06:51:43;;;;;;;13.35;9.45;;;;;;;5.43;100.00;101806.78;4993185;28;20044;-86
2023/11/17 06:54:10;;;;;;;13.70;9.68;;;;;;;5.43;100.00;101809.38;5014367;28;20022;-86
2023/11/17 06:56:42;;;;;;;13.52;9.55;;;;;;;5.42;100.00;101815.44;5016037;28;20066;-86
2023/11/17 06:59:08;;;;;;;12.88;9.80;;;;;;;5.42;100.00;101820.66;5012974;28;20041;-86
2023/11/17 07:01:35;;;;;;;12.50;10.02;;;;;;;5.39;100.00;101810.25;5024248;28;20269;-86
2023/11/17 07:04:02;;;;;;;12.88;9.68;;;;;;;5.37;100.00;101814.59;5013544;28;20037;-86
2023/11/17 07:06:28;;;;;;;10.43;9.35;;;;;;;5.35;100.00;101817.19;5014105;28;20029;-86
2023/11/17 07:08:54;;;;;;;15.05;9.93;;;;;;;5.34;100.00;101817.19;5017128;28;20075;-86
2023/11/17 07:11:19;;;;;;;11.95;10.20;;;;;;;5.33;100.00;101812.84;5017595;28;20021;-86
2023/11/17 07:13:45;;;;;;;10.60;9.00;;;;;;;5.33;100.00;101818.06;5019034;28;20042;-86
2023/11/17 07:16:12;;;;;;;16.92;9.82;;;;;;;5.32;100.00;101824.13;5013615;28;20038;-86
2023/11/17 07:18:38;;;;;;;13.57;9.30;;;;;;;5.31;100.00;101827.59;5016999;28;20336;-86
2023/11/17 07:21:04;;;;;;;16.70;10.13;;;;;;;5.31;100.00;101825.88;4999653;28;20084;-87
2023/11/17 07:23:33;;;;;;;14.98;9.85;;;;;;;5.31;100.00;101832.78;4998667;28;20271;-86
2023/11/17 07:25:59;;;;;;;16.23;9.68;;;;;;;5.31;100.00;101831.06;4999105;28;20052;-86
2023/11/17 07:28:25;;;;;;;15.85;10.02;;;;;;;5.31;100.00;101831.06;4999025;28;20487;-86
2023/11/17 07:30:52;;;;;;;14.23;10.27;;;;;;;5.31;100.00;101837.97;4995064;28;20042;-86
2023/11/17 07:33:18;;;;;;;15.43;10.23;;;;;;;5.30;100.00;101831.06;5008907;28;20032;-86
2023/11/17 07:35:43;;;;;;;11.63;9.43;;;;;;;5.31;100.00;101830.19;4996582;28;20321;-87
2023/11/17 07:38:09;;;;;;;12.40;9.32;;;;;;;5.35;100.00;101837.13;5013776;28;20040;-86
2023/11/17 07:40:34;;;;;;;14.15;9.77;;;;;;;5.38;100.00;101845.78;4995346;28;20109;-86
2023/11/17 07:43:00;;;;;;;14.02;9.07;;;;;;;5.39;100.00;101839.69;5016706;28;20033;-86
2023/11/17 07:45:25;;;;;;;12.93;9.10;;;;;;;5.40;100.00;101850.94;5016498;28;20337;-86
2023/11/17 07:47:51;;;;;;;11.93;8.60;;;;;;;5.40;100.00;101843.16;4991571;28;20388;-86
2023/11/17 07:50:19;;;;;;;13.18;8.77;;;;;;;5.42;100.00;101849.22;5016970;28;20233;-86
2023/11/17 07:52:44;;;;;;;12.65;9.57;;;;;;;5.48;100.00;101853.53;5014679;28;20206;-86
2023/11/17 07:55:13;;;;;;;12.40;8.75;;;;;;;5.53;100.00;101851.75;5017115;28;20045;-86
2023/11/17 07:57:39;;;;;;;9.93;8.68;;;;;;;5.57;100.00;101845.69;5016425;28;20329;-86
2023/11/17 08:00:13;;;;;;;14.63;10.48;;;;;;;5.54;100.00;101861.28;5018198;28;20079;-86
2023/11/17 08:02:38;;;;;;;13.65;9.43;;;;;;;5.53;100.00;101857.84;5036311;28;20025;-87
2023/11/17 08:05:04;;;;;;;11.60;9.35;;;;;;;5.55;100.00;101863.03;5029678;28;20321;-87
2023/11/17 08:07:31;;;;;;;11.27;9.07;;;;;;;5.56;100.00;101859.56;4998482;28;20291;-87
2023/11/17 08:09:56;;;;;;;14.90;9.38;;;;;;;5.59;100.00;101862.16;5016764;28;20368;-86
2023/11/17 08:12:21;;;;;;;13.20;8.20;;;;;;;5.63;100.00;101863.88;5016563;28;20297;-87
2023/11/17 08:14:47;;;;;;;15.95;11.15;;;;;;;5.65;100.00;101859.50;5014845;28;20030;-87
2023/11/17 08:17:13;;;;;;;13.07;10.10;;;;;;;5.71;100.00;101858.63;5015568;28;20053;-87
2023/11/17 08:19:40;;;;;;;17.23;11.48;;;;;;;5.75;100.00;101863.81;5015762;28;20096;-87
2023/11/17 08:22:05;;;;;;;14.57;10.77;;;;;;;5.80;100.00;101865.53;5016658;28;20025;-87
2023/11/17 08:24:31;;;;;;;16.80;12.38;;;;;;;5.85;100.00;101875.03;5013897;28;20353;-87
2023/11/17 08:26:56;;;;;;;18.08;12.20;;;;;;;5.89;100.00;101865.47;5016613;28;20214;-87
2023/11/17 08:29:23;;;;;;;24.33;14.50;;;;;;;5.91;100.00;101875.03;5019116;28;20351;-87
2023/11/17 08:31:48;;;;;;;26.08;14.95;;;;;;;5.92;100.00;101876.72;5015868;28;20045;-87
2023/11/17 08:34:14;;;;;;;20.58;13.77;;;;;;;5.96;100.00;101875.00;5016815;28;20105;-86
2023/11/17 08:36:39;;;;;;;21.88;14.13;;;;;;;5.99;100.00;101880.22;5015488;28;20231;-86
2023/11/17 08:39:08;;;;;;;20.80;14.15;;;;;;;6.02;100.00;101877.59;5017361;28;20229;-87
2023/11/17 08:41:33;;;;;;;;;;;;;;;6.03;100.00;101881.91;5014183;28;20041;-86
2023/11/17 08:43:59;;;;;;;19.92;14.23;;;;;;;6.06;100.00;101878.44;5014616;28;19917;-87
2023/11/17 08:46:26;;;;;;;21.80;13.30;;;;;;;6.08;100.00;101874.97;5016010;28;20366;-87
2023/11/17 08:48:52;;;;;;;18.55;13.20;;;;;;;6.10;100.00;101886.22;5014420;28;20133;-87
2023/11/17 08:51:18;;;;;;;25.00;14.73;;;;;;;6.13;100.00;101893.13;5015348;28;20022;-86
2023/11/17 08:53:43;;;;;;;22.85;14.18;;;;;;;6.16;100.00;101890.50;5013663;28;20040;-86
2023/11/17 08:56:10;;;;;;;20.73;13.30;;;;;;;6.20;100.00;101888.75;5016868;28;20029;-86
2023/11/17 08:58:36;;;;;;;21.75;14.85;;;;;;;6.22;100.00;101889.59;5013314;28;20439;-87
2023/11/17 09:01:01;;;;;;;22.05;14.25;;;;;;;6.25;100.00;101895.66;5017109;28;20060;-87
2023/11/17 09:03:29;;;;;;;21.80;15.27;;;;;;;6.30;100.00;101890.44;5009835;28;20043;-87
2023/11/17 09:05:55;;;;;;;26.27;15.90;;;;;;;6.33;100.00;101895.59;5013451;28;20224;-86
2023/11/17 09:08:20;;;;;;;23.77;16.00;;;;;;;6.38;100.00;101895.59;5013121;28;20050;-86
2023/11/17 09:10:47;;;;;;;30.75;17.33;;;;;;;6.41;100.00;101904.25;5006094;28;20057;-87
2023/11/17 09:13:13;;;;;;;23.98;16.23;;;;;;;6.44;100.00;101905.94;5013417;28;20071;-87
2023/11/17 09:15:39;;;;;;;31.58;17.95;;;;;;;6.48;100.00;101908.53;5016607;28;20038;-86
2023/11/17 09:18:07;;;;;;;34.55;18.35;;;;;;;6.51;100.00;101913.72;5014523;28;20033;-87
2023/11/17 09:20:33;;;;;;;30.13;18.52;;;;;;;6.55;100.00;101917.19;5017573;28;20038;-87
2023/11/17 09:22:59;;;;;;;25.10;16.13;;;;;;;6.58;100.00;101919.75;5009435;28;20397;-87
2023/11/17 09:25:24;;;;;;;27.40;16.27;;;;;;;6.61;100.00;101924.94;5009659;28;20097;-87
2023/11/17 09:27:54;;;;;;;25.55;16.67;;;;;;;6.65;100.00;101924.03;5011171;28;20104;-87
2023/11/17 09:30:21;;;;;;;29.40;18.10;;;;;;;6.66;100.00;101925.78;5011838;28;20306;-87
2023/11/17 09:32:49;;;;;;;25.83;16.20;;;;;;;6.69;100.00;101927.47;5011126;28;20291;-87
2023/11/17 09:35:21;;;;;;;23.75;16.08;;;;;;;6.72;100.00;101930.94;5009772;28;20034;-87
2023/11/17 09:38:09;;;;;;;28.95;17.40;;;;;;;6.76;100.00;101936.97;5024675;28;20044;-87
2023/11/17 09:40:36;;;;;;;22.88;16.00;;;;;;;6.79;100.00;101944.78;5022261;28;20026;-87
2023/11/17 09:43:18;;;;;;;29.58;16.58;;;;;;;6.81;100.00;101942.16;5010752;28;20164;-86
2023/11/17 09:45:47;;;;;;;29.33;16.92;;;;;;;6.84;100.00;101944.72;5010744;28;20049;-86
2023/11/17 09:48:14;;;;;;;29.30;16.92;;;;;;;6.85;100.00;101952.53;5013923;28;20341;-86
2023/11/17 09:50:41;;;;;;;27.85;16.98;;;;;;;6.88;100.00;101952.50;5014946;28;20041;-86
2023/11/17 09:53:09;;;;;;;28.58;17.80;;;;;;;6.92;100.00;101961.16;5021916;28;20252;-87
2023/11/17 09:55:38;;;;;;;25.23;17.33;;;;;;;6.91;100.00;101962.91;5013141;28;20379;-86
2023/11/17 09:58:06;;;;;;;25.17;16.55;;;;;;;6.95;100.00;101970.69;5017051;28;20036;-86
2023/11/17 10:00:33;;;;;;;26.90;16.40;;;;;;;6.96;100.00;101965.47;5011304;28;20030;-86
2023/11/17 10:03:02;;;;;;;26.30;16.77;;;;;;;7.02;100.00;101967.16;5013667;28;20383;-86
2023/11/17 10:05:29;;;;;;;29.38;17.63;;;;;;;7.07;100.00;101962.78;5022727;28;20029;-86
2023/11/17 10:08:13;;;;;;;30.23;18.30;;;;;;;7.12;100.00;101963.63;5010531;28;20057;-87
2023/11/17 10:10:43;;;;;;;27.90;16.15;;;;;;;7.17;100.00;101966.16;5002090;28;20046;-87
2023/11/17 10:13:12;;;;;;;27.92;17.15;;;;;;;7.20;100.00;101968.75;5012821;28;20088;-87
2023/11/17 10:15:52;;;;;;;28.20;17.02;;;;;;;7.23;100.00;101968.75;5012441;28;20419;-87
2023/11/17 10:18:29;;;;;;;27.48;16.15;;;;;;;7.26;100.00;101969.56;5012866;28;20106;-87
2023/11/17 10:20:57;;;;;;;26.65;15.85;;;;;;;7.31;100.00;101972.13;5021657;28;20221;-87
2023/11/17 10:23:23;;;;;;;20.52;14.60;;;;;;;7.34;100.00;101974.72;5017761;28;20017;-86
2023/11/17 10:25:54;;;;;;;25.95;16.30;;;;;;;7.36;100.00;101974.69;5011169;28;20029;-86
2023/11/17 10:28:24;;;;;;;23.00;13.82;;;;;;;7.36;100.00;101980.78;5013378;28;20117;-87
2023/11/17 10:30:59;;;;;;;25.55;15.13;;;;;;;7.39;100.00;101977.28;5013294;28;20073;-86
2023/11/17 10:33:33;;;;;;;21.13;13.73;;;;;;;7.43;100.00;101974.63;5013408;28;20033;-87
2023/11/17 10:36:13;;;;;;;20.00;13.63;;;;;;;7.48;100.00;101985.88;5012319;28;20312;-87
2023/11/17 10:38:39;;;;;;;20.90;12.68;;;;;;;7.52;100.00;101978.03;5004099;28;20068;-87
2023/11/17 10:41:20;;;;;;;17.42;12.32;;;;;;;7.56;100.00;101984.94;5014647;28;20038;-87
2023/11/17 10:43:53;;;;;;;17.45;11.45;;;;;;;7.58;100.00;101980.56;5017495;28;20034;-87
2023/11/17 10:46:44;;;;;;;12.60;10.45;;;;;;;7.57;100.00;101978.88;5013877;28;20328;-86
2023/11/17 10:49:16;;;;;;;12.07;8.43;;;;;;;7.56;100.00;101977.97;5018194;28;20034;-86
2023/11/17 10:51:51;;;;;;;16.40;7.78;;;;;;;7.56;100.00;101984.94;5019867;28;20029;-87
2023/11/17 10:54:18;;;;;;;9.35;6.75;;;;;;;7.58;100.00;101985.78;5021340;28;20030;-87
2023/11/17 10:56:45;;;;;;;7.00;5.60;;;;;;;7.56;100.00;101990.16;5015721;28;20034;-86
2023/11/17 10:59:18;;;;;;;8.80;6.13;;;;;;;7.56;100.00;101996.22;5016688;28;20036;-87
2023/11/17 11:01:44;;;;;;;8.95;5.97;;;;;;;7.57;100.00;101992.75;5013533;28;20092;-87
2023/11/17 11:04:14;;;;;;;8.52;6.25;;;;;;;7.61;100.00;101991.84;5017772;28;20363;-87
2023/11/17 11:06:43;;;;;;;9.90;7.10;;;;;;;7.63;100.00;101984.84;5014956;28;20041;-87
2023/11/17 11:09:17;;;;;;;;;;;;;;;7.65;100.00;101990.91;5016591;28;20113;-86
2023/11/17 11:11:50;;;;;;;8.25;6.57;;;;;;;7.69;100.00;101995.25;5013731;28;20208;-86
2023/11/17 11:14:17;;;;;;;7.28;6.35;;;;;;;7.71;100.00;101989.13;5015637;28;20030;-87
2023/11/17 11:16:45;;;;;;;9.25;6.32;;;;;;;7.73;100.00;101985.66;5015429;28;20075;-86
2023/11/17 11:19:13;;;;;;;6.80;6.15;;;;;;;7.81;100.00;101990.78;5015827;28;20029;-87
2023/11/17 11:21:40;;;;;;;7.15;5.97;;;;;;;7.85;100.00;101984.63;5015200;28;20029;-87